sensor_id;sensor_type;location;lat;lon;timestamp;pressure;altitude;pressure_sealevel;temperature;humidity
64316;BME280;50652;51.482;-0.580;2023-06-22T00:00:18;101771.18;;;18.33;53.56
64316;BME280;50652;51.482;-0.580;2023-06-22T00:02:45;101769.45;;;18.53;54.00
64316;BME280;50652;51.482;-0.580;2023-06-22T00:05:12;101764.61;;;18.00;53.52
64316;BME280;50652;51.482;-0.580;2023-06-22T00:07:40;101766.19;;;18.35;54.14
64316;BME280;50652;51.482;-0.580;2023-06-22T00:10:07;101769.19;;;18.21;53.88
64316;BME280;50652;51.482;-0.580;2023-06-22T00:12:34;101768.76;;;18.11;54.09
64316;BME280;50652;51.482;-0.580;2023-06-22T00:15:03;101769.88;;;18.28;53.78
64316;BME280;50652;51.482;-0.580;2023-06-22T00:17:30;101768.71;;;18.16;53.45
64316;BME280;50652;51.482;-0.580;2023-06-22T00:19:58;101773.89;;;17.87;54.90
64316;BME280;50652;51.482;-0.580;2023-06-22T00:22:24;101770.75;;;18.23;54.13
64316;BME280;50652;51.482;-0.580;2023-06-22T00:24:51;101773.83;;;18.11;54.29
64316;BME280;50652;51.482;-0.580;2023-06-22T00:27:18;101766.44;;;18.00;54.73
64316;BME280;50652;51.482;-0.580;2023-06-22T00:29:45;101766.24;;;18.12;53.61
64316;BME280;50652;51.482;-0.580;2023-06-22T00:32:13;101765.51;;;17.71;54.16
64316;BME280;50652;51.482;-0.580;2023-06-22T00:34:40;101763.64;;;17.94;54.58
64316;BME280;50652;51.482;-0.580;2023-06-22T00:37:08;101766.59;;;18.02;55.10
64316;BME280;50652;51.482;-0.580;2023-06-22T00:39:35;101763.85;;;18.74;54.56
64316;BME280;50652;51.482;-0.580;2023-06-22T00:42:04;101772.78;;;17.67;55.58
64316;BME280;50652;51.482;-0.580;2023-06-22T00:44:31;101775.30;;;17.64;54.52
64316;BME280;50652;51.482;-0.580;2023-06-22T00:46:58;101779.31;;;17.91;55.41
64316;BME280;50652;51.482;-0.580;2023-06-22T00:49:25;101773.23;;;17.50;55.75
64316;BME280;50652;51.482;-0.580;2023-06-22T00:51:53;101767.42;;;17.72;55.65
64316;BME280;50652;51.482;-0.580;2023-06-22T00:54:20;101763.88;;;17.41;55.51
64316;BME280;50652;51.482;-0.580;2023-06-22T00:56:47;101765.39;;;17.59;55.54
64316;BME280;50652;51.482;-0.580;2023-06-22T00:59:15;101768.95;;;17.47;54.96
64316;BME280;50652;51.482;-0.580;2023-06-22T01:01:43;101770.82;;;17.55;55.16
64316;BME280;50652;51.482;-0.580;2023-06-22T01:04:11;101770.50;;;17.13;55.43
64316;BME280;50652;51.482;-0.580;2023-06-22T01:06:52;101775.39;;;17.39;55.32
64316;BME280;50652;51.482;-0.580;2023-06-22T01:09:27;101776.50;;;17.11;55.30
64316;BME280;50652;51.482;-0.580;2023-06-22T01:12:00;101773.64;;;17.30;55.05
64316;BME280;50652;51.482;-0.580;2023-06-22T01:14:37;101773.30;;;17.24;55.55
64316;BME280;50652;51.482;-0.580;2023-06-22T01:17:08;101773.76;;;17.18;55.25
64316;BME280;50652;51.482;-0.580;2023-06-22T01:19:43;101770.38;;;17.21;55.22
64316;BME280;50652;51.482;-0.580;2023-06-22T01:22:16;101769.61;;;17.19;55.38
64316;BME280;50652;51.482;-0.580;2023-06-22T01:24:53;101768.33;;;17.26;55.40
64316;BME280;50652;51.482;-0.580;2023-06-22T01:27:32;101766.33;;;17.08;55.13
64316;BME280;50652;51.482;-0.580;2023-06-22T01:30:05;101762.19;;;17.12;55.90
64316;BME280;50652;51.482;-0.580;2023-06-22T01:32:34;101756.37;;;17.07;55.47
64316;BME280;50652;51.482;-0.580;2023-06-22T01:35:06;101757.56;;;16.91;55.44
64316;BME280;50652;51.482;-0.580;2023-06-22T01:37:35;101759.42;;;17.00;55.50
64316;BME280;50652;51.482;-0.580;2023-06-22T01:40:05;101763.50;;;17.06;55.08
64316;BME280;50652;51.482;-0.580;2023-06-22T01:42:34;101766.26;;;17.03;55.10
64316;BME280;50652;51.482;-0.580;2023-06-22T01:45:05;101763.63;;;17.07;55.38
64316;BME280;50652;51.482;-0.580;2023-06-22T01:47:34;101766.80;;;16.99;54.87
64316;BME280;50652;51.482;-0.580;2023-06-22T01:50:05;101767.82;;;16.89;54.75
64316;BME280;50652;51.482;-0.580;2023-06-22T01:52:32;101768.34;;;16.83;55.16
64316;BME280;50652;51.482;-0.580;2023-06-22T01:54:59;101767.39;;;16.66;55.93
64316;BME280;50652;51.482;-0.580;2023-06-22T01:57:26;101764.72;;;16.98;55.72
64316;BME280;50652;51.482;-0.580;2023-06-22T01:59:59;101763.80;;;17.05;55.51
64316;BME280;50652;51.482;-0.580;2023-06-22T02:02:30;101764.78;;;16.70;55.97
64316;BME280;50652;51.482;-0.580;2023-06-22T02:05:04;101762.67;;;16.67;55.30
64316;BME280;50652;51.482;-0.580;2023-06-22T02:07:37;101762.22;;;16.64;55.20
64316;BME280;50652;51.482;-0.580;2023-06-22T02:10:08;101763.59;;;16.61;56.21
64316;BME280;50652;51.482;-0.580;2023-06-22T02:12:37;101762.02;;;16.64;56.01
64316;BME280;50652;51.482;-0.580;2023-06-22T02:15:06;101758.70;;;16.52;55.56
64316;BME280;50652;51.482;-0.580;2023-06-22T02:17:34;101754.33;;;16.84;55.89
64316;BME280;50652;51.482;-0.580;2023-06-22T02:20:05;101755.52;;;16.44;56.19
64316;BME280;50652;51.482;-0.580;2023-06-22T02:22:33;101762.86;;;16.52;56.64
64316;BME280;50652;51.482;-0.580;2023-06-22T02:25:03;101766.23;;;16.66;56.22
64316;BME280;50652;51.482;-0.580;2023-06-22T02:27:31;101770.52;;;16.29;56.30
64316;BME280;50652;51.482;-0.580;2023-06-22T02:29:58;101768.28;;;16.68;56.12
64316;BME280;50652;51.482;-0.580;2023-06-22T02:32:25;101771.03;;;16.65;56.27
64316;BME280;50652;51.482;-0.580;2023-06-22T02:34:53;101773.61;;;16.67;56.38
64316;BME280;50652;51.482;-0.580;2023-06-22T02:37:20;101773.80;;;16.67;57.15
64316;BME280;50652;51.482;-0.580;2023-06-22T02:39:47;101771.09;;;16.85;56.89
64316;BME280;50652;51.482;-0.580;2023-06-22T02:42:14;101767.23;;;16.24;56.50
64316;BME280;50652;51.482;-0.580;2023-06-22T02:44:41;101767.91;;;16.58;57.94
64316;BME280;50652;51.482;-0.580;2023-06-22T02:47:08;101761.47;;;16.15;56.83
64316;BME280;50652;51.482;-0.580;2023-06-22T02:49:36;101759.60;;;16.54;56.77
64316;BME280;50652;51.482;-0.580;2023-06-22T02:52:04;101762.78;;;16.22;56.62
64316;BME280;50652;51.482;-0.580;2023-06-22T02:54:31;101760.59;;;16.25;57.27
64316;BME280;50652;51.482;-0.580;2023-06-22T02:56:58;101760.53;;;16.29;56.82
64316;BME280;50652;51.482;-0.580;2023-06-22T02:59:25;101764.96;;;16.35;57.14
64316;BME280;50652;51.482;-0.580;2023-06-22T03:01:52;101759.43;;;16.37;56.85
64316;BME280;50652;51.482;-0.580;2023-06-22T03:04:19;101759.48;;;16.25;56.66
64316;BME280;50652;51.482;-0.580;2023-06-22T03:06:46;101757.08;;;16.00;56.28
64316;BME280;50652;51.482;-0.580;2023-06-22T03:09:14;101759.35;;;16.36;56.35
64316;BME280;50652;51.482;-0.580;2023-06-22T03:11:41;101761.12;;;16.04;56.45
64316;BME280;50652;51.482;-0.580;2023-06-22T03:14:08;101761.46;;;15.91;56.75
64316;BME280;50652;51.482;-0.580;2023-06-22T03:16:35;101762.76;;;16.18;56.38
64316;BME280;50652;51.482;-0.580;2023-06-22T03:19:02;101756.68;;;16.55;56.78
64316;BME280;50652;51.482;-0.580;2023-06-22T03:21:29;101760.71;;;16.32;57.09
64316;BME280;50652;51.482;-0.580;2023-06-22T03:23:56;101762.03;;;16.61;57.24
64316;BME280;50652;51.482;-0.580;2023-06-22T03:26:23;101760.24;;;16.58;56.49
64316;BME280;50652;51.482;-0.580;2023-06-22T03:28:50;101752.31;;;16.06;57.23
64316;BME280;50652;51.482;-0.580;2023-06-22T03:31:17;101749.40;;;16.14;57.00
64316;BME280;50652;51.482;-0.580;2023-06-22T03:33:44;101743.74;;;15.82;57.05
64316;BME280;50652;51.482;-0.580;2023-06-22T03:36:11;101742.24;;;15.67;57.13
64316;BME280;50652;51.482;-0.580;2023-06-22T03:38:38;101745.38;;;15.76;56.66
64316;BME280;50652;51.482;-0.580;2023-06-22T03:41:05;101748.96;;;15.66;56.96
64316;BME280;50652;51.482;-0.580;2023-06-22T03:43:32;101746.09;;;15.61;56.54
64316;BME280;50652;51.482;-0.580;2023-06-22T03:45:59;101742.24;;;15.86;57.08
64316;BME280;50652;51.482;-0.580;2023-06-22T03:48:26;101739.83;;;15.58;56.53
64316;BME280;50652;51.482;-0.580;2023-06-22T03:50:53;101740.80;;;15.57;56.50
64316;BME280;50652;51.482;-0.580;2023-06-22T03:53:20;101744.47;;;15.66;56.71
64316;BME280;50652;51.482;-0.580;2023-06-22T03:55:49;101744.57;;;15.59;56.45
64316;BME280;50652;51.482;-0.580;2023-06-22T03:58:16;101744.90;;;15.78;56.51
64316;BME280;50652;51.482;-0.580;2023-06-22T04:00:44;101741.76;;;15.88;56.26
64316;BME280;50652;51.482;-0.580;2023-06-22T04:03:11;101740.73;;;15.51;56.63
64316;BME280;50652;51.482;-0.580;2023-06-22T04:05:38;101738.23;;;15.85;56.71
64316;BME280;50652;51.482;-0.580;2023-06-22T04:08:05;101738.60;;;16.16;57.04
64316;BME280;50652;51.482;-0.580;2023-06-22T04:10:33;101740.26;;;15.87;56.52
64316;BME280;50652;51.482;-0.580;2023-06-22T04:13:00;101741.55;;;16.08;56.65
64316;BME280;50652;51.482;-0.580;2023-06-22T04:15:27;101744.06;;;16.12;56.23
64316;BME280;50652;51.482;-0.580;2023-06-22T04:17:55;101742.67;;;16.04;57.16
64316;BME280;50652;51.482;-0.580;2023-06-22T04:20:22;101742.28;;;16.33;56.80
64316;BME280;50652;51.482;-0.580;2023-06-22T04:22:50;101746.92;;;16.58;56.72
64316;BME280;50652;51.482;-0.580;2023-06-22T04:25:17;101750.22;;;16.49;56.45
64316;BME280;50652;51.482;-0.580;2023-06-22T04:27:43;101751.29;;;16.93;56.64
64316;BME280;50652;51.482;-0.580;2023-06-22T04:30:11;101748.36;;;16.80;57.46
64316;BME280;50652;51.482;-0.580;2023-06-22T04:32:38;101745.75;;;16.72;57.76
64316;BME280;50652;51.482;-0.580;2023-06-22T04:35:06;101746.38;;;16.68;56.75
64316;BME280;50652;51.482;-0.580;2023-06-22T04:37:33;101745.33;;;16.82;56.77
64316;BME280;50652;51.482;-0.580;2023-06-22T04:40:02;101745.28;;;16.99;56.73
64316;BME280;50652;51.482;-0.580;2023-06-22T04:42:29;101744.71;;;16.57;56.81
64316;BME280;50652;51.482;-0.580;2023-06-22T04:44:56;101743.67;;;16.73;56.90
64316;BME280;50652;51.482;-0.580;2023-06-22T04:47:23;101748.65;;;16.87;56.58
64316;BME280;50652;51.482;-0.580;2023-06-22T04:49:50;101747.68;;;16.73;56.84
64316;BME280;50652;51.482;-0.580;2023-06-22T04:52:17;101748.38;;;16.91;56.56
64316;BME280;50652;51.482;-0.580;2023-06-22T04:54:44;101752.28;;;17.46;55.98
64316;BME280;50652;51.482;-0.580;2023-06-22T04:57:11;101754.38;;;17.80;57.42
64316;BME280;50652;51.482;-0.580;2023-06-22T04:59:39;101757.50;;;17.65;56.75
64316;BME280;50652;51.482;-0.580;2023-06-22T05:02:06;101757.74;;;17.73;57.01
64316;BME280;50652;51.482;-0.580;2023-06-22T05:04:34;101757.98;;;17.69;56.89
64316;BME280;50652;51.482;-0.580;2023-06-22T05:07:02;101759.26;;;17.89;56.66
64316;BME280;50652;51.482;-0.580;2023-06-22T05:09:30;101756.88;;;17.86;57.15
64316;BME280;50652;51.482;-0.580;2023-06-22T05:11:57;101753.49;;;17.96;56.16
64316;BME280;50652;51.482;-0.580;2023-06-22T05:14:24;101757.17;;;17.27;57.67
64316;BME280;50652;51.482;-0.580;2023-06-22T05:16:51;101757.57;;;18.37;56.68
64316;BME280;50652;51.482;-0.580;2023-06-22T05:19:19;101760.75;;;18.20;56.51
64316;BME280;50652;51.482;-0.580;2023-06-22T05:21:46;101765.67;;;18.46;55.98
64316;BME280;50652;51.482;-0.580;2023-06-22T05:24:13;101767.14;;;18.52;56.29
64316;BME280;50652;51.482;-0.580;2023-06-22T05:26:40;101768.41;;;18.70;56.31
64316;BME280;50652;51.482;-0.580;2023-06-22T05:29:07;101766.20;;;19.34;56.02
64316;BME280;50652;51.482;-0.580;2023-06-22T05:31:34;101768.48;;;19.60;55.61
64316;BME280;50652;51.482;-0.580;2023-06-22T05:34:02;101771.98;;;19.59;55.23
64316;BME280;50652;51.482;-0.580;2023-06-22T05:36:29;101777.40;;;19.65;55.01
64316;BME280;50652;51.482;-0.580;2023-06-22T05:38:56;101780.71;;;19.25;55.29
64316;BME280;50652;51.482;-0.580;2023-06-22T05:41:24;101782.90;;;18.80;55.44
64316;BME280;50652;51.482;-0.580;2023-06-22T05:43:51;101785.16;;;18.92;55.28
64316;BME280;50652;51.482;-0.580;2023-06-22T05:46:19;101779.19;;;19.05;55.20
64316;BME280;50652;51.482;-0.580;2023-06-22T05:48:46;101782.84;;;18.65;55.43
64316;BME280;50652;51.482;-0.580;2023-06-22T05:51:14;101780.64;;;19.13;55.00
64316;BME280;50652;51.482;-0.580;2023-06-22T05:53:40;101781.36;;;19.23;55.62
64316;BME280;50652;51.482;-0.580;2023-06-22T05:56:08;101772.64;;;19.71;55.08
64316;BME280;50652;51.482;-0.580;2023-06-22T05:58:35;101770.62;;;19.87;55.38
64316;BME280;50652;51.482;-0.580;2023-06-22T06:01:02;101769.42;;;20.37;54.77
64316;BME280;50652;51.482;-0.580;2023-06-22T06:03:30;101769.53;;;20.78;55.07
64316;BME280;50652;51.482;-0.580;2023-06-22T06:05:56;101770.32;;;21.52;53.56
64316;BME280;50652;51.482;-0.580;2023-06-22T06:08:23;101768.28;;;21.62;53.78
64316;BME280;50652;51.482;-0.580;2023-06-22T06:10:50;101769.70;;;22.33;52.95
64316;BME280;50652;51.482;-0.580;2023-06-22T06:13:17;101773.99;;;22.32;51.88
64316;BME280;50652;51.482;-0.580;2023-06-22T06:15:44;101770.89;;;22.19;52.01
64316;BME280;50652;51.482;-0.580;2023-06-22T06:18:11;101771.05;;;22.33;51.77
64316;BME280;50652;51.482;-0.580;2023-06-22T06:20:38;101772.40;;;22.24;52.22
64316;BME280;50652;51.482;-0.580;2023-06-22T06:23:05;101775.80;;;22.63;51.52
64316;BME280;50652;51.482;-0.580;2023-06-22T06:25:32;101766.95;;;22.51;51.49
64316;BME280;50652;51.482;-0.580;2023-06-22T06:27:59;101762.51;;;22.92;50.05
64316;BME280;50652;51.482;-0.580;2023-06-22T06:30:27;101757.99;;;23.35;49.98
64316;BME280;50652;51.482;-0.580;2023-06-22T06:32:54;101754.66;;;23.05;49.72
64316;BME280;50652;51.482;-0.580;2023-06-22T06:35:21;101759.16;;;22.81;49.36
64316;BME280;50652;51.482;-0.580;2023-06-22T06:37:49;101762.05;;;22.87;50.35
64316;BME280;50652;51.482;-0.580;2023-06-22T06:40:18;101764.83;;;22.27;50.23
64316;BME280;50652;51.482;-0.580;2023-06-22T06:42:47;101760.44;;;22.36;50.77
64316;BME280;50652;51.482;-0.580;2023-06-22T06:45:17;101754.43;;;22.70;49.74
64316;BME280;50652;51.482;-0.580;2023-06-22T06:47:46;101749.75;;;22.65;49.31
64316;BME280;50652;51.482;-0.580;2023-06-22T06:50:13;101751.79;;;22.86;49.54
64316;BME280;50652;51.482;-0.580;2023-06-22T06:52:41;101750.49;;;22.92;49.71
64316;BME280;50652;51.482;-0.580;2023-06-22T06:55:09;101751.22;;;22.08;50.95
64316;BME280;50652;51.482;-0.580;2023-06-22T06:57:36;101747.16;;;22.80;50.71
64316;BME280;50652;51.482;-0.580;2023-06-22T07:00:04;101752.99;;;22.27;50.95
64316;BME280;50652;51.482;-0.580;2023-06-22T07:02:33;101750.16;;;22.12;50.80
64316;BME280;50652;51.482;-0.580;2023-06-22T07:04:59;101748.04;;;22.70;50.50
64316;BME280;50652;51.482;-0.580;2023-06-22T07:07:26;101742.54;;;22.41;50.24
64316;BME280;50652;51.482;-0.580;2023-06-22T07:09:53;101738.25;;;22.81;49.67
64316;BME280;50652;51.482;-0.580;2023-06-22T07:12:20;101739.50;;;22.95;49.89
64316;BME280;50652;51.482;-0.580;2023-06-22T07:14:48;101739.78;;;23.03;49.37
64316;BME280;50652;51.482;-0.580;2023-06-22T07:17:16;101737.48;;;23.02;49.38
64316;BME280;50652;51.482;-0.580;2023-06-22T07:19:43;101735.29;;;22.98;49.76
64316;BME280;50652;51.482;-0.580;2023-06-22T07:22:10;101735.80;;;22.53;50.58
64316;BME280;50652;51.482;-0.580;2023-06-22T07:24:38;101737.19;;;23.44;49.07
64316;BME280;50652;51.482;-0.580;2023-06-22T07:27:05;101740.84;;;23.48;49.59
64316;BME280;50652;51.482;-0.580;2023-06-22T07:29:32;101744.46;;;22.66;50.65
64316;BME280;50652;51.482;-0.580;2023-06-22T07:31:59;101744.15;;;23.08;50.09
64316;BME280;50652;51.482;-0.580;2023-06-22T07:34:26;101747.59;;;23.26;49.68
64316;BME280;50652;51.482;-0.580;2023-06-22T07:36:53;101748.72;;;23.42;48.74
64316;BME280;50652;51.482;-0.580;2023-06-22T07:39:20;101746.18;;;23.50;49.50
64316;BME280;50652;51.482;-0.580;2023-06-22T07:41:48;101740.71;;;23.73;48.41
64316;BME280;50652;51.482;-0.580;2023-06-22T07:44:15;101738.38;;;22.96;49.54
64316;BME280;50652;51.482;-0.580;2023-06-22T07:46:42;101735.23;;;23.63;49.82
64316;BME280;50652;51.482;-0.580;2023-06-22T07:49:09;101735.52;;;24.18;48.51
64316;BME280;50652;51.482;-0.580;2023-06-22T07:51:36;101737.33;;;23.48;49.29
64316;BME280;50652;51.482;-0.580;2023-06-22T07:54:03;101736.64;;;24.28;48.74
64316;BME280;50652;51.482;-0.580;2023-06-22T07:56:30;101731.24;;;24.25;49.08
64316;BME280;50652;51.482;-0.580;2023-06-22T07:58:57;101732.27;;;24.28;48.28
64316;BME280;50652;51.482;-0.580;2023-06-22T08:01:24;101731.77;;;24.36;48.30
64316;BME280;50652;51.482;-0.580;2023-06-22T08:03:51;101729.16;;;24.94;48.20
64316;BME280;50652;51.482;-0.580;2023-06-22T08:06:19;101728.76;;;25.09;47.64
64316;BME280;50652;51.482;-0.580;2023-06-22T08:08:45;101727.90;;;24.82;47.18
64316;BME280;50652;51.482;-0.580;2023-06-22T08:11:12;101732.26;;;24.98;47.40
64316;BME280;50652;51.482;-0.580;2023-06-22T08:13:40;101730.79;;;25.25;46.50
64316;BME280;50652;51.482;-0.580;2023-06-22T08:16:07;101725.61;;;25.29;47.08
64316;BME280;50652;51.482;-0.580;2023-06-22T08:18:34;101724.93;;;24.79;46.83
64316;BME280;50652;51.482;-0.580;2023-06-22T08:21:01;101724.94;;;25.38;46.89
64316;BME280;50652;51.482;-0.580;2023-06-22T08:23:29;101721.62;;;25.25;47.06
64316;BME280;50652;51.482;-0.580;2023-06-22T08:25:56;101720.35;;;25.35;47.08
64316;BME280;50652;51.482;-0.580;2023-06-22T08:28:23;101718.49;;;26.03;46.31
64316;BME280;50652;51.482;-0.580;2023-06-22T08:30:50;101716.42;;;25.95;46.10
64316;BME280;50652;51.482;-0.580;2023-06-22T08:33:24;101717.14;;;26.32;45.66
64316;BME280;50652;51.482;-0.580;2023-06-22T08:35:51;101716.13;;;26.74;45.79
64316;BME280;50652;51.482;-0.580;2023-06-22T08:38:19;101717.04;;;26.51;45.51
64316;BME280;50652;51.482;-0.580;2023-06-22T08:40:46;101713.42;;;27.15;44.27
64316;BME280;50652;51.482;-0.580;2023-06-22T08:43:14;101714.33;;;26.63;43.71
64316;BME280;50652;51.482;-0.580;2023-06-22T08:45:41;101718.41;;;26.26;44.34
64316;BME280;50652;51.482;-0.580;2023-06-22T08:48:08;101722.57;;;26.29;45.41
64316;BME280;50652;51.482;-0.580;2023-06-22T08:50:35;101721.39;;;26.97;44.33
64316;BME280;50652;51.482;-0.580;2023-06-22T08:53:03;101720.30;;;27.30;44.11
64316;BME280;50652;51.482;-0.580;2023-06-22T08:55:30;101718.39;;;27.05;44.79
64316;BME280;50652;51.482;-0.580;2023-06-22T08:57:57;101718.24;;;26.85;44.23
64316;BME280;50652;51.482;-0.580;2023-06-22T09:00:23;101718.90;;;27.43;42.86
64316;BME280;50652;51.482;-0.580;2023-06-22T09:02:51;101720.35;;;27.89;41.92
64316;BME280;50652;51.482;-0.580;2023-06-22T09:05:17;101724.23;;;26.65;42.68
64316;BME280;50652;51.482;-0.580;2023-06-22T09:07:45;101722.99;;;27.52;42.38
64316;BME280;50652;51.482;-0.580;2023-06-22T09:10:12;101721.02;;;27.13;43.27
64316;BME280;50652;51.482;-0.580;2023-06-22T09:12:45;101723.88;;;27.50;40.95
64316;BME280;50652;51.482;-0.580;2023-06-22T09:15:12;101727.00;;;27.64;41.82
64316;BME280;50652;51.482;-0.580;2023-06-22T09:17:40;101723.02;;;28.18;42.05
64316;BME280;50652;51.482;-0.580;2023-06-22T09:20:09;101723.06;;;27.35;42.13
64316;BME280;50652;51.482;-0.580;2023-06-22T09:22:36;101726.12;;;26.18;42.34
64316;BME280;50652;51.482;-0.580;2023-06-22T09:25:04;101725.78;;;26.57;42.51
64316;BME280;50652;51.482;-0.580;2023-06-22T09:27:32;101723.04;;;27.92;40.87
64316;BME280;50652;51.482;-0.580;2023-06-22T09:29:59;101721.54;;;28.05;40.06
64316;BME280;50652;51.482;-0.580;2023-06-22T09:32:26;101713.62;;;28.42;40.06
64316;BME280;50652;51.482;-0.580;2023-06-22T09:34:53;101719.96;;;28.63;40.80
64316;BME280;50652;51.482;-0.580;2023-06-22T09:37:21;101720.47;;;27.76;41.78
64316;BME280;50652;51.482;-0.580;2023-06-22T09:39:49;101718.26;;;28.58;40.98
64316;BME280;50652;51.482;-0.580;2023-06-22T09:42:16;101716.74;;;27.94;40.42
64316;BME280;50652;51.482;-0.580;2023-06-22T09:44:43;101722.53;;;28.49;40.56
64316;BME280;50652;51.482;-0.580;2023-06-22T09:47:10;101717.47;;;29.06;39.34
64316;BME280;50652;51.482;-0.580;2023-06-22T09:49:38;101719.42;;;28.92;39.08
64316;BME280;50652;51.482;-0.580;2023-06-22T09:52:05;101718.53;;;29.54;37.64
64316;BME280;50652;51.482;-0.580;2023-06-22T09:54:32;101719.41;;;30.05;36.48
64316;BME280;50652;51.482;-0.580;2023-06-22T09:57:00;101721.10;;;29.67;37.42
64316;BME280;50652;51.482;-0.580;2023-06-22T09:59:28;101722.90;;;29.80;37.83
64316;BME280;50652;51.482;-0.580;2023-06-22T10:01:55;101724.00;;;30.17;36.44
64316;BME280;50652;51.482;-0.580;2023-06-22T10:04:23;101723.50;;;29.98;35.67
64316;BME280;50652;51.482;-0.580;2023-06-22T10:06:50;101722.30;;;30.31;34.60
64316;BME280;50652;51.482;-0.580;2023-06-22T10:09:17;101721.88;;;29.11;35.23
64316;BME280;50652;51.482;-0.580;2023-06-22T10:11:44;101721.89;;;29.49;36.74
64316;BME280;50652;51.482;-0.580;2023-06-22T10:14:11;101721.53;;;28.88;36.44
64316;BME280;50652;51.482;-0.580;2023-06-22T10:16:38;101720.10;;;29.04;36.88
64316;BME280;50652;51.482;-0.580;2023-06-22T10:19:05;101715.57;;;28.93;36.16
64316;BME280;50652;51.482;-0.580;2023-06-22T10:21:31;101713.35;;;29.48;37.79
64316;BME280;50652;51.482;-0.580;2023-06-22T10:23:58;101713.50;;;30.35;36.62
64316;BME280;50652;51.482;-0.580;2023-06-22T10:26:25;101709.57;;;30.09;34.94
64316;BME280;50652;51.482;-0.580;2023-06-22T10:28:52;101707.95;;;29.95;35.55
64316;BME280;50652;51.482;-0.580;2023-06-22T10:31:20;101708.77;;;31.65;34.31
64316;BME280;50652;51.482;-0.580;2023-06-22T10:33:48;101707.44;;;30.57;33.31
64316;BME280;50652;51.482;-0.580;2023-06-22T10:36:16;101705.54;;;31.43;34.11
64316;BME280;50652;51.482;-0.580;2023-06-22T10:38:43;101704.42;;;29.89;33.79
64316;BME280;50652;51.482;-0.580;2023-06-22T10:41:10;101704.15;;;30.31;33.37
64316;BME280;50652;51.482;-0.580;2023-06-22T10:43:36;101709.24;;;30.74;34.82
64316;BME280;50652;51.482;-0.580;2023-06-22T10:46:03;101712.56;;;30.98;33.14
64316;BME280;50652;51.482;-0.580;2023-06-22T10:48:30;101709.61;;;31.14;33.79
64316;BME280;50652;51.482;-0.580;2023-06-22T10:50:57;101710.13;;;30.68;34.93
64316;BME280;50652;51.482;-0.580;2023-06-22T10:53:24;101704.72;;;29.83;34.60
64316;BME280;50652;51.482;-0.580;2023-06-22T10:55:50;101705.56;;;31.54;32.63
64316;BME280;50652;51.482;-0.580;2023-06-22T10:58:18;101702.96;;;32.68;32.21
64316;BME280;50652;51.482;-0.580;2023-06-22T11:00:45;101701.22;;;32.80;32.29
64316;BME280;50652;51.482;-0.580;2023-06-22T11:03:12;101705.99;;;32.16;30.82
64316;BME280;50652;51.482;-0.580;2023-06-22T11:05:39;101705.03;;;32.56;30.54
64316;BME280;50652;51.482;-0.580;2023-06-22T11:08:06;101705.13;;;32.31;31.48
64316;BME280;50652;51.482;-0.580;2023-06-22T11:10:33;101701.30;;;32.43;30.77
64316;BME280;50652;51.482;-0.580;2023-06-22T11:13:05;101698.98;;;32.88;30.76
64316;BME280;50652;51.482;-0.580;2023-06-22T11:15:32;101703.62;;;33.22;30.84
64316;BME280;50652;51.482;-0.580;2023-06-22T11:18:05;101705.75;;;33.05;31.27
64316;BME280;50652;51.482;-0.580;2023-06-22T11:20:37;101698.65;;;32.27;29.92
64316;BME280;50652;51.482;-0.580;2023-06-22T11:23:04;101698.99;;;31.99;30.63
64316;BME280;50652;51.482;-0.580;2023-06-22T11:25:31;101699.00;;;31.83;30.77
64316;BME280;50652;51.482;-0.580;2023-06-22T11:27:59;101693.41;;;32.31;31.52
64316;BME280;50652;51.482;-0.580;2023-06-22T11:30:26;101694.40;;;32.33;31.92
64316;BME280;50652;51.482;-0.580;2023-06-22T11:33:00;101692.68;;;32.23;31.03
64316;BME280;50652;51.482;-0.580;2023-06-22T11:35:27;101700.80;;;31.35;29.51
64316;BME280;50652;51.482;-0.580;2023-06-22T11:37:54;101698.36;;;31.16;31.28
64316;BME280;50652;51.482;-0.580;2023-06-22T11:40:21;101693.23;;;32.00;29.33
64316;BME280;50652;51.482;-0.580;2023-06-22T11:42:47;101688.36;;;31.56;29.48
64316;BME280;50652;51.482;-0.580;2023-06-22T11:45:14;101683.68;;;33.02;29.06
64316;BME280;50652;51.482;-0.580;2023-06-22T11:47:46;101681.82;;;33.63;29.61
64316;BME280;50652;51.482;-0.580;2023-06-22T11:50:13;101682.12;;;33.41;27.00
64316;BME280;50652;51.482;-0.580;2023-06-22T11:52:40;101678.82;;;34.16;28.44
64316;BME280;50652;51.482;-0.580;2023-06-22T11:55:07;101676.14;;;34.04;27.76
64316;BME280;50652;51.482;-0.580;2023-06-22T11:57:37;101677.50;;;33.77;28.02
64316;BME280;50652;51.482;-0.580;2023-06-22T12:00:05;101683.83;;;35.04;27.44
64316;BME280;50652;51.482;-0.580;2023-06-22T12:02:32;101682.22;;;35.26;26.06
64316;BME280;50652;51.482;-0.580;2023-06-22T12:04:59;101683.71;;;35.44;26.04
64316;BME280;50652;51.482;-0.580;2023-06-22T12:07:26;101682.34;;;34.81;26.83
64316;BME280;50652;51.482;-0.580;2023-06-22T12:09:53;101677.56;;;37.00;26.61
64316;BME280;50652;51.482;-0.580;2023-06-22T12:12:20;101681.85;;;36.00;24.83
64316;BME280;50652;51.482;-0.580;2023-06-22T12:14:47;101676.24;;;35.36;26.51
64316;BME280;50652;51.482;-0.580;2023-06-22T12:17:14;101672.09;;;34.79;26.16
64316;BME280;50652;51.482;-0.580;2023-06-22T12:19:41;101668.27;;;34.67;24.68
64316;BME280;50652;51.482;-0.580;2023-06-22T12:22:08;101666.01;;;34.53;26.45
64316;BME280;50652;51.482;-0.580;2023-06-22T12:24:35;101666.55;;;34.38;27.88
64316;BME280;50652;51.482;-0.580;2023-06-22T12:27:02;101668.18;;;35.07;26.97
64316;BME280;50652;51.482;-0.580;2023-06-22T12:29:29;101665.43;;;34.87;25.99
64316;BME280;50652;51.482;-0.580;2023-06-22T12:31:57;101662.72;;;35.17;25.50
64316;BME280;50652;51.482;-0.580;2023-06-22T12:34:24;101660.04;;;34.81;25.64
64316;BME280;50652;51.482;-0.580;2023-06-22T12:36:51;101656.96;;;36.15;25.34
64316;BME280;50652;51.482;-0.580;2023-06-22T12:39:18;101652.01;;;35.05;24.34
64316;BME280;50652;51.482;-0.580;2023-06-22T12:41:44;101647.99;;;35.51;25.17